Time;durP1;ratioP1;P1;durP2;ratioP2;P2;SDS_P1;SDS_P2;PMS_P1;PMS_P2;Temp;Humidity;BMP_temperature;BMP_pressure;BME280_temperature;BME280_humidity;BME280_pressure;Samples;Min_cycle;Max_cycle;Signal;HPM_P1;HPM_P2
2021/08/18 00:01:03;;;;;;;12.65;7.35;;;15.40;99.90;;;;;;5126184;27;20118;-78
2021/08/18 00:03:31;;;;;;;14.73;7.72;;;15.40;99.90;;;;;;5141297;27;20134;-79
2021/08/18 00:05:58;;;;;;;14.75;8.05;;;15.50;99.90;;;;;;5133381;27;20060;-79
2021/08/18 00:08:25;;;;;;;13.02;7.18;;;15.50;99.90;;;;;;5123717;27;20122;-74
2021/08/18 00:10:53;;;;;;;14.52;8.25;;;15.50;99.90;;;;;;5122321;27;20047;-79
2021/08/18 00:13:24;;;;;;;13.68;8.00;;;15.40;99.90;;;;;;5126174;27;20139;-79
2021/08/18 00:15:55;;;;;;;15.60;8.15;;;15.40;99.90;;;;;;5127575;27;20476;-78
2021/08/18 00:18:22;;;;;;;14.35;8.00;;;15.40;99.90;;;;;;5119893;27;20046;-79
2021/08/18 00:20:49;;;;;;;16.25;8.02;;;15.40;99.90;;;;;;5127786;27;20134;-78
2021/08/18 00:23:16;;;;;;;14.15;8.02;;;15.40;99.90;;;;;;5126964;27;20050;-79
2021/08/18 00:25:44;;;;;;;14.15;8.00;;;15.40;99.90;;;;;;5127138;27;20583;-78
2021/08/18 00:28:11;;;;;;;14.60;7.75;;;15.40;99.90;;;;;;5125307;27;20043;-78
2021/08/18 00:30:39;;;;;;;15.55;7.43;;;15.40;99.90;;;;;;5127380;27;20035;-78
2021/08/18 00:33:07;;;;;;;15.05;7.78;;;15.40;99.90;;;;;;5125791;27;20506;-79
2021/08/18 00:35:34;;;;;;;15.13;8.32;;;15.40;99.90;;;;;;5123405;27;20123;-79
2021/08/18 00:38:02;;;;;;;13.93;7.80;;;15.40;99.90;;;;;;5123340;27;20401;-78
2021/08/18 00:40:29;;;;;;;16.50;8.27;;;15.40;99.90;;;;;;5126529;27;20047;-78
2021/08/18 00:42:56;;;;;;;14.70;8.38;;;15.40;99.90;;;;;;5126957;27;20050;-79
2021/08/18 00:45:23;;;;;;;16.27;8.38;;;15.50;99.90;;;;;;5124398;27;20047;-81
2021/08/18 00:47:53;;;;;;;15.50;8.27;;;15.50;99.90;;;;;;5123967;27;20544;-79
2021/08/18 00:50:25;;;;;;;14.80;7.95;;;15.50;99.90;;;;;;5120087;27;20130;-79
2021/08/18 00:52:54;;;;;;;13.40;7.32;;;15.50;99.90;;;;;;5121560;27;20035;-79
2021/08/18 00:55:23;;;;;;;15.15;8.90;;;15.50;99.90;;;;;;5122471;27;20058;-79
2021/08/18 00:57:50;;;;;;;15.38;8.25;;;15.50;99.90;;;;;;5127017;27;20118;-80
2021/08/18 01:00:20;;;;;;;15.55;8.30;;;15.50;99.90;;;;;;5125161;27;20150;-80
2021/08/18 01:02:49;;;;;;;16.95;8.07;;;15.50;99.90;;;;;;5117636;27;20154;-79
2021/08/18 01:05:18;;;;;;;15.95;8.73;;;15.50;99.90;;;;;;5124410;27;20047;-79
2021/08/18 01:07:48;;;;;;;16.77;8.57;;;15.50;99.90;;;;;;5124723;27;20150;-79
2021/08/18 01:10:18;;;;;;;16.30;8.38;;;15.50;99.90;;;;;;5128521;27;20122;-80
2021/08/18 01:12:46;;;;;;;14.57;7.82;;;15.50;99.90;;;;;;5122822;27;20043;-80
2021/08/18 01:15:17;;;;;;;13.20;7.85;;;15.50;99.90;;;;;;5124110;27;20044;-80
2021/08/18 01:17:48;;;;;;;15.02;8.07;;;15.50;99.90;;;;;;5125324;27;20045;-79
2021/08/18 01:20:18;;;;;;;16.90;8.65;;;15.50;99.90;;;;;;5122919;27;20146;-80
2021/08/18 01:22:48;;;;;;;14.57;7.78;;;15.50;99.90;;;;;;5126567;27;20126;-79
2021/08/18 01:25:15;;;;;;;14.50;7.97;;;15.50;99.90;;;;;;5125729;27;20139;-78
2021/08/18 01:27:49;;;;;;;14.57;7.53;;;15.50;99.90;;;;;;5126306;27;20043;-79
2021/08/18 01:30:20;;;;;;;16.52;8.55;;;15.50;99.90;;;;;;5124449;27;20065;-80
2021/08/18 01:32:50;;;;;;;17.00;9.40;;;15.50;99.90;;;;;;5122577;27;20070;-80
2021/08/18 01:35:27;;;;;;;15.02;8.50;;;15.50;99.90;;;;;;5123945;27;20134;-79
2021/08/18 01:37:55;;;;;;;14.88;7.88;;;15.60;99.90;;;;;;5126061;27;20126;-81
2021/08/18 01:40:24;;;;;;;16.20;8.20;;;15.60;99.90;;;;;;5118642;27;20138;-79
2021/08/18 01:42:52;;;;;;;18.50;9.23;;;15.60;99.90;;;;;;5125514;27;20154;-80
2021/08/18 01:45:25;;;;;;;16.60;9.05;;;15.60;99.90;;;;;;5117248;27;20145;-79
2021/08/18 01:47:54;;;;;;;16.35;9.10;;;15.60;99.90;;;;;;5104658;28;20130;-78
2021/08/18 01:50:22;;;;;;;16.38;8.48;;;15.50;99.90;;;;;;5124441;27;20134;-79
2021/08/18 01:52:51;;;;;;;17.27;9.15;;;15.50;99.90;;;;;;5126223;27;20575;-79
2021/08/18 01:55:18;;;;;;;16.40;9.00;;;15.50;99.90;;;;;;5123736;27;20067;-79
2021/08/18 01:57:45;;;;;;;18.00;9.70;;;15.50;99.90;;;;;;5125647;27;20043;-77
2021/08/18 02:00:15;;;;;;;18.08;9.40;;;15.50;99.90;;;;;;5124292;27;20114;-80
2021/08/18 02:02:43;;;;;;;13.82;8.38;;;15.50;99.90;;;;;;5122189;27;20055;-77
2021/08/18 02:05:12;;;;;;;16.60;9.05;;;15.50;99.90;;;;;;5122231;27;20669;-80
2021/08/18 02:07:39;;;;;;;17.25;9.40;;;15.50;99.90;;;;;;5125716;27;20062;-80
2021/08/18 02:10:12;;;;;;;17.33;9.27;;;15.50;99.90;;;;;;5120762;27;20131;-79
2021/08/18 02:12:40;;;;;;;16.70;9.32;;;15.50;99.90;;;;;;5125596;27;20114;-78
2021/08/18 02:15:09;;;;;;;15.70;8.65;;;15.50;99.90;;;;;;5124920;27;20142;-81
2021/08/18 02:17:36;;;;;;;17.70;9.30;;;15.50;99.90;;;;;;5121870;27;20040;-79
2021/08/18 02:20:09;;;;;;;16.88;9.23;;;15.50;99.90;;;;;;5121403;27;20131;-79
2021/08/18 02:22:36;;;;;;;18.02;9.27;;;15.50;99.90;;;;;;5114515;27;20408;-77
2021/08/18 02:25:05;;;;;;;17.33;9.77;;;15.50;99.90;;;;;;5121549;27;20126;-79
2021/08/18 02:27:32;;;;;;;18.58;9.55;;;15.50;99.90;;;;;;5123297;27;20130;-79
2021/08/18 02:29:59;;;;;;;17.73;9.35;;;15.50;99.90;;;;;;5125047;27;20576;-80
2021/08/18 02:32:26;;;;;;;20.17;10.18;;;15.50;99.90;;;;;;5120664;27;20141;-79
2021/08/18 02:34:53;;;;;;;17.38;9.63;;;15.50;99.90;;;;;;5125048;27;20043;-79
2021/08/18 02:37:22;;;;;;;18.55;9.77;;;15.50;99.90;;;;;;5124388;27;20048;-77
2021/08/18 02:39:49;;;;;;;18.55;10.32;;;15.40;99.90;;;;;;5125366;27;20118;-78
2021/08/18 02:42:16;;;;;;;19.52;10.05;;;15.40;99.90;;;;;;5123084;27;20473;-77
2021/08/18 02:44:43;;;;;;;18.33;10.32;;;15.40;99.90;;;;;;5121713;27;20126;-78
2021/08/18 02:47:10;;;;;;;20.70;11.15;;;15.40;99.90;;;;;;5121669;27;20127;-80
2021/08/18 02:49:37;;;;;;;21.55;11.27;;;15.30;99.90;;;;;;5125117;28;20130;-79
2021/08/18 02:52:05;;;;;;;17.92;9.52;;;15.30;99.90;;;;;;5123223;27;20036;-80
2021/08/18 02:54:34;;;;;;;19.13;9.98;;;15.30;99.90;;;;;;5114000;28;20130;-79
2021/08/18 02:57:01;;;;;;;22.35;10.82;;;15.30;99.90;;;;;;5123476;27;20043;-78
2021/08/18 02:59:28;;;;;;;20.70;10.57;;;15.30;99.90;;;;;;5128128;27;20126;-80
2021/08/18 03:01:55;;;;;;;19.08;10.52;;;15.30;99.90;;;;;;5129053;27;20475;-78
2021/08/18 03:04:23;;;;;;;18.02;9.65;;;15.30;99.90;;;;;;5116663;27;20150;-78
2021/08/18 03:06:52;;;;;;;18.77;10.25;;;15.30;99.90;;;;;;5123380;27;20047;-77
2021/08/18 03:09:19;;;;;;;17.85;9.93;;;15.30;99.90;;;;;;5128029;27;20047;-79
2021/08/18 03:11:48;;;;;;;18.10;10.05;;;15.30;99.90;;;;;;5127389;27;20459;-76
2021/08/18 03:14:15;;;;;;;18.75;10.57;;;15.30;99.90;;;;;;5118881;27;20048;-79
2021/08/18 03:16:42;;;;;;;17.80;10.18;;;15.30;99.90;;;;;;5125475;27;20122;-76
2021/08/18 03:19:09;;;;;;;18.65;10.68;;;15.30;99.90;;;;;;5124118;27;20143;-79
2021/08/18 03:21:36;;;;;;;20.83;11.05;;;15.30;99.90;;;;;;5121658;27;20036;-79
2021/08/18 03:24:04;;;;;;;18.55;10.68;;;15.30;99.90;;;;;;5121914;27;20146;-80
2021/08/18 03:26:31;;;;;;;17.88;10.48;;;15.30;99.90;;;;;;5121504;27;20540;-79
2021/08/18 03:28:59;;;;;;;19.88;10.23;;;15.30;99.90;;;;;;5121057;27;20122;-79
2021/08/18 03:31:27;;;;;;;21.42;11.85;;;15.30;99.90;;;;;;5121502;27;20141;-80
2021/08/18 03:33:54;;;;;;;18.55;10.02;;;15.30;99.90;;;;;;5121683;27;20039;-78
2021/08/18 03:36:22;;;;;;;19.70;10.57;;;15.30;99.90;;;;;;5123452;27;20535;-79
2021/08/18 03:38:49;;;;;;;20.90;10.23;;;15.30;99.90;;;;;;5127163;27;20557;-80
2021/08/18 03:41:16;;;;;;;19.70;10.40;;;15.30;99.90;;;;;;5122794;27;20047;-79
2021/08/18 03:43:43;;;;;;;19.55;9.98;;;15.30;99.90;;;;;;5123562;27;20051;-80
2021/08/18 03:46:12;;;;;;;20.85;10.70;;;15.30;99.90;;;;;;5120637;27;20520;-80
2021/08/18 03:48:39;;;;;;;18.60;10.68;;;15.30;99.90;;;;;;5124711;27;20122;-79
2021/08/18 03:51:06;;;;;;;22.42;11.05;;;15.30;99.90;;;;;;5124361;27;20127;-82
2021/08/18 03:53:33;;;;;;;17.92;10.52;;;15.30;99.90;;;;;;5124386;27;20127;-80
2021/08/18 03:56:00;;;;;;;21.02;11.13;;;15.30;99.90;;;;;;5120964;27;20130;-80
2021/08/18 03:58:27;;;;;;;21.88;10.77;;;15.30;99.90;;;;;;5121012;27;20047;-80
2021/08/18 04:00:55;;;;;;;18.77;10.05;;;15.30;99.90;;;;;;5120727;27;20047;-80
2021/08/18 04:03:23;;;;;;;19.35;10.95;;;15.40;99.90;;;;;;5129938;27;20134;-79
2021/08/18 04:05:50;;;;;;;21.05;11.20;;;15.30;99.90;;;;;;5124381;27;20119;-79
2021/08/18 04:08:17;;;;;;;19.58;10.68;;;15.30;99.90;;;;;;5122872;27;20131;-80
2021/08/18 04:10:45;;;;;;;19.48;10.50;;;15.30;99.90;;;;;;5126938;27;20126;-79
2021/08/18 04:13:12;;;;;;;18.50;10.40;;;15.30;99.90;;;;;;5124991;27;20442;-81
2021/08/18 04:15:41;;;;;;;19.13;10.32;;;15.30;99.90;;;;;;5127638;27;20118;-81
2021/08/18 04:18:10;;;;;;;20.27;11.00;;;15.30;99.90;;;;;;5128154;27;20115;-80
2021/08/18 04:20:40;;;;;;;20.67;11.52;;;15.30;99.90;;;;;;5133673;27;20062;-79
2021/08/18 04:23:07;;;;;;;18.20;10.35;;;15.30;99.90;;;;;;5118113;27;20134;-79
2021/08/18 04:25:34;;;;;;;19.98;10.57;;;15.30;99.90;;;;;;5130000;27;20565;-75
2021/08/18 04:28:01;;;;;;;19.88;10.82;;;15.40;99.90;;;;;;5125848;27;20419;-79
2021/08/18 04:30:28;;;;;;;20.65;11.13;;;15.40;99.90;;;;;;5125599;27;20555;-78
2021/08/18 04:32:56;;;;;;;20.02;11.15;;;15.40;99.90;;;;;;5123929;27;20468;-78
2021/08/18 04:35:23;;;;;;;20.98;11.18;;;15.40;99.90;;;;;;5118273;27;20054;-78
2021/08/18 04:37:51;;;;;;;20.23;11.13;;;15.30;99.90;;;;;;5115975;28;20133;-80
2021/08/18 04:40:21;;;;;;;21.00;11.40;;;15.40;99.90;;;;;;5115524;28;20051;-78
2021/08/18 04:42:49;;;;;;;19.75;11.38;;;15.40;99.90;;;;;;5115741;28;20044;-80
2021/08/18 04:45:18;;;;;;;20.63;10.90;;;15.30;99.90;;;;;;5115688;28;20044;-80
2021/08/18 04:47:45;;;;;;;20.13;11.52;;;15.30;99.90;;;;;;5115396;28;20134;-80
2021/08/18 04:50:15;;;;;;;20.30;11.20;;;15.30;99.90;;;;;;5115305;28;20047;-79
2021/08/18 04:52:42;;;;;;;19.20;11.25;;;15.30;99.90;;;;;;5115424;28;20044;-79
2021/08/18 04:55:15;;;;;;;19.38;10.90;;;15.30;99.90;;;;;;5115455;28;20054;-80
2021/08/18 04:57:43;;;;;;;19.23;10.43;;;15.30;99.90;;;;;;5115503;28;20461;-80
2021/08/18 05:00:12;;;;;;;20.42;10.77;;;15.30;99.90;;;;;;5115121;28;20139;-80
2021/08/18 05:02:39;;;;;;;20.05;10.52;;;15.30;99.90;;;;;;5114397;28;20046;-80
2021/08/18 05:05:07;;;;;;;19.42;10.55;;;15.30;99.90;;;;;;5115245;28;20059;-78
2021/08/18 05:07:34;;;;;;;19.45;10.77;;;15.30;99.90;;;;;;5115061;28;20241;-80
2021/08/18 05:10:01;;;;;;;19.23;10.88;;;15.30;99.90;;;;;;5114867;28;20043;-81
2021/08/18 05:12:30;;;;;;;19.65;11.07;;;15.40;99.90;;;;;;5115498;28;20055;-80
2021/08/18 05:14:58;;;;;;;19.00;10.88;;;15.40;99.90;;;;;;5114917;28;20498;-78
2021/08/18 05:17:25;;;;;;;17.90;9.48;;;15.40;99.90;;;;;;5114923;28;20075;-79
2021/08/18 05:19:52;;;;;;;21.73;10.75;;;15.40;99.90;;;;;;5116199;28;20083;-81
2021/08/18 05:22:19;;;;;;;20.40;10.88;;;15.40;99.90;;;;;;5114714;28;20130;-80
2021/08/18 05:24:46;;;;;;;18.38;10.07;;;15.40;99.90;;;;;;5115038;28;20051;-79
2021/08/18 05:27:13;;;;;;;18.08;9.73;;;15.40;99.90;;;;;;5114643;28;20481;-79
2021/08/18 05:29:42;;;;;;;19.23;10.57;;;15.40;99.90;;;;;;5114665;28;20040;-80
2021/08/18 05:32:10;;;;;;;20.45;10.98;;;15.50;99.90;;;;;;5114559;28;20047;-77
2021/08/18 05:34:37;;;;;;;19.10;10.80;;;15.40;99.90;;;;;;5114037;28;20051;-77
2021/08/18 05:37:04;;;;;;;17.98;10.60;;;15.40;99.90;;;;;;5115053;28;20448;-80
2021/08/18 05:39:31;;;;;;;18.38;10.40;;;15.40;99.90;;;;;;5114457;28;20054;-80
2021/08/18 05:41:58;;;;;;;17.45;10.52;;;15.40;99.90;;;;;;5114834;28;20134;-79
2021/08/18 05:44:25;;;;;;;18.50;10.20;;;15.40;99.90;;;;;;5107419;28;20150;-80
2021/08/18 05:46:54;;;;;;;19.58;10.85;;;15.40;99.90;;;;;;5094050;28;20135;-78
2021/08/18 05:49:21;;;;;;;18.23;9.63;;;15.50;99.90;;;;;;5114478;28;20047;-80
2021/08/18 05:51:49;;;;;;;19.08;9.70;;;15.50;99.90;;;;;;5114694;28;20082;-78
2021/08/18 05:54:16;;;;;;;17.60;9.35;;;15.50;99.90;;;;;;5113963;28;20082;-78
2021/08/18 05:56:43;;;;;;;20.25;10.30;;;15.50;99.90;;;;;;5114210;28;20054;-80
2021/08/18 05:59:10;;;;;;;18.25;10.27;;;15.50;99.90;;;;;;5113999;28;20148;-80
2021/08/18 06:01:37;;;;;;;17.27;9.45;;;15.50;99.90;;;;;;5115593;28;20505;-77
2021/08/18 06:04:06;;;;;;;17.40;9.93;;;15.50;99.90;;;;;;5115332;28;20470;-80
2021/08/18 06:06:33;;;;;;;18.90;10.68;;;15.50;99.90;;;;;;5114255;28;20115;-79
2021/08/18 06:09:00;;;;;;;19.50;10.73;;;15.60;99.90;;;;;;5113163;28;20130;-80
2021/08/18 06:11:27;;;;;;;18.63;10.00;;;15.60;99.90;;;;;;5114163;28;20054;-79
2021/08/18 06:13:54;;;;;;;16.08;9.23;;;15.60;99.90;;;;;;5113727;28;20075;-80
2021/08/18 06:16:21;;;;;;;19.17;10.85;;;15.60;99.90;;;;;;5114087;28;20050;-80
2021/08/18 06:18:49;;;;;;;17.88;10.57;;;15.60;99.90;;;;;;5113946;28;20126;-80
2021/08/18 06:21:17;;;;;;;20.25;10.75;;;15.60;99.90;;;;;;5113827;28;20407;-81
2021/08/18 06:23:47;;;;;;;18.48;10.77;;;15.60;99.90;;;;;;5113803;28;20139;-80
2021/08/18 06:26:14;;;;;;;19.45;10.38;;;15.70;99.90;;;;;;5113802;28;20047;-80
2021/08/18 06:28:41;;;;;;;17.92;9.75;;;15.70;99.90;;;;;;5113924;28;20075;-79
2021/08/18 06:31:08;;;;;;;17.88;10.63;;;15.70;99.90;;;;;;5113047;28;20551;-80
2021/08/18 06:33:35;;;;;;;18.08;9.68;;;15.70;99.90;;;;;;5114194;28;20053;-81
2021/08/18 06:36:02;;;;;;;17.52;9.30;;;15.70;99.90;;;;;;5113804;28;20118;-80
2021/08/18 06:38:31;;;;;;;17.05;9.70;;;15.70;99.90;;;;;;5113324;28;20449;-81
2021/08/18 06:40:58;;;;;;;19.23;10.00;;;15.80;99.90;;;;;;5113503;28;20066;-79
2021/08/18 06:43:25;;;;;;;17.77;10.27;;;15.80;99.90;;;;;;5113942;28;20050;-79
2021/08/18 06:45:52;;;;;;;18.90;10.32;;;15.90;99.90;;;;;;5116358;28;20058;-79
2021/08/18 06:48:19;;;;;;;19.95;9.82;;;15.90;99.90;;;;;;5113574;28;20721;-81
2021/08/18 06:50:46;;;;;;;18.48;10.07;;;15.90;99.90;;;;;;5113384;28;20130;-80
2021/08/18 06:53:14;;;;;;;18.48;9.93;;;15.90;99.90;;;;;;5113153;28;20127;-80
2021/08/18 06:55:42;;;;;;;15.60;9.23;;;15.90;99.90;;;;;;5113462;28;20563;-81
2021/08/18 06:58:09;;;;;;;19.23;10.35;;;16.00;99.90;;;;;;5113534;28;20130;-77
2021/08/18 07:00:36;;;;;;;18.63;10.10;;;16.00;99.90;;;;;;5113441;28;20140;-79
2021/08/18 07:03:03;;;;;;;19.30;10.30;;;16.00;99.90;;;;;;5113549;28;20122;-80
2021/08/18 07:05:32;;;;;;;20.55;10.25;;;16.10;99.90;;;;;;5113372;28;20050;-79
2021/08/18 07:07:59;;;;;;;17.77;9.57;;;16.10;99.90;;;;;;5113358;28;20045;-80
2021/08/18 07:10:27;;;;;;;18.08;9.55;;;16.10;99.90;;;;;;5113267;28;20082;-78
2021/08/18 07:12:55;;;;;;;17.08;9.60;;;16.20;99.90;;;;;;5113132;28;20157;-81
2021/08/18 07:15:22;;;;;;;18.23;10.00;;;16.20;99.90;;;;;;5113389;28;20472;-80
2021/08/18 07:17:49;;;;;;;17.30;8.95;;;16.20;99.90;;;;;;5113154;28;20413;-78
2021/08/18 07:20:16;;;;;;;17.42;9.52;;;16.30;99.90;;;;;;5112748;28;20146;-80
2021/08/18 07:22:44;;;;;;;16.17;9.05;;;16.30;99.90;;;;;;5113522;28;20240;-79
2021/08/18 07:25:12;;;;;;;16.55;9.68;;;16.40;99.90;;;;;;5114319;28;20462;-80
2021/08/18 07:27:39;;;;;;;15.85;9.50;;;16.40;99.90;;;;;;5115623;28;20098;-79
2021/08/18 07:30:10;;;;;;;16.67;8.75;;;16.50;99.90;;;;;;5116520;28;20122;-78
2021/08/18 07:32:37;;;;;;;14.82;8.65;;;16.50;99.90;;;;;;5113364;28;20549;-80
2021/08/18 07:35:07;;;;;;;15.43;8.32;;;16.50;99.90;;;;;;5113193;28;20040;-79
2021/08/18 07:37:34;;;;;;;15.15;8.45;;;16.50;99.90;;;;;;5113347;28;20131;-80
2021/08/18 07:40:01;;;;;;;14.88;8.02;;;16.60;99.90;;;;;;5113485;28;20071;-80
2021/08/18 07:42:28;;;;;;;18.02;8.77;;;16.60;99.80;;;;;;5114229;28;20128;-78
2021/08/18 07:44:56;;;;;;;13.93;7.50;;;16.70;99.90;;;;;;5106246;28;20493;-78
2021/08/18 07:47:25;;;;;;;13.70;7.88;;;16.70;99.90;;;;;;5096056;28;20058;-77
2021/08/18 07:49:52;;;;;;;13.25;7.88;;;16.80;99.80;;;;;;5097913;28;20052;-80
2021/08/18 07:52:19;;;;;;;13.38;7.15;;;16.80;99.90;;;;;;5116660;28;20130;-80
2021/08/18 07:54:47;;;;;;;14.00;7.70;;;16.80;99.70;;;;;;5117114;28;20051;-78
2021/08/18 07:57:15;;;;;;;15.60;8.00;;;16.80;99.30;;;;;;5116890;28;20083;-79
2021/08/18 07:59:42;;;;;;;12.95;6.93;;;16.90;99.60;;;;;;5116617;28;20046;-78
2021/08/18 08:02:09;;;;;;;12.23;6.90;;;16.90;99.40;;;;;;5116868;28;20572;-80
2021/08/18 08:04:37;;;;;;;11.30;6.68;;;16.90;99.50;;;;;;5116012;28;20134;-79
2021/08/18 08:07:05;;;;;;;13.60;6.50;;;16.90;99.50;;;;;;5116726;28;20044;-80
2021/08/18 08:09:32;;;;;;;11.82;6.18;;;17.00;99.40;;;;;;5116828;28;20462;-79
2021/08/18 08:11:59;;;;;;;10.73;6.43;;;17.00;99.30;;;;;;5120730;28;20075;-77
2021/08/18 08:14:26;;;;;;;13.35;7.45;;;17.00;99.30;;;;;;5118815;28;20127;-80
2021/08/18 08:16:53;;;;;;;14.30;7.00;;;17.10;99.20;;;;;;5116669;28;20053;-79
2021/08/18 08:19:20;;;;;;;12.68;6.97;;;17.10;99.10;;;;;;5115985;28;20094;-78
2021/08/18 08:21:49;;;;;;;11.05;5.97;;;17.10;99.20;;;;;;5116219;28;20567;-80
2021/08/18 08:24:16;;;;;;;10.13;6.03;;;17.20;99.10;;;;;;5116312;28;20047;-80
2021/08/18 08:26:44;;;;;;;10.02;5.93;;;17.20;99.10;;;;;;5115921;28;20126;-80
2021/08/18 08:29:11;;;;;;;10.80;5.78;;;17.20;99.00;;;;;;5116126;28;20130;-80
2021/08/18 08:31:40;;;;;;;11.25;6.32;;;17.30;98.70;;;;;;5115882;28;20122;-79
2021/08/18 08:34:08;;;;;;;9.95;5.13;;;17.30;98.80;;;;;;5115958;28;20047;-80
2021/08/18 08:36:35;;;;;;;12.15;6.30;;;17.30;98.70;;;;;;5119549;28;20043;-77
2021/08/18 08:39:03;;;;;;;10.50;5.85;;;17.40;98.80;;;;;;5124309;28;20126;-79
2021/08/18 08:41:33;;;;;;;10.20;5.85;;;17.40;98.70;;;;;;5125183;28;20071;-80
2021/08/18 08:44:01;;;;;;;9.50;5.70;;;17.50;98.60;;;;;;5116214;28;20046;-77
2021/08/18 08:46:28;;;;;;;12.57;6.70;;;17.50;98.60;;;;;;5115928;28;20126;-80
2021/08/18 08:48:56;;;;;;;9.80;5.60;;;17.50;98.40;;;;;;5115853;28;20043;-79
2021/08/18 08:51:23;;;;;;;10.45;5.45;;;17.50;98.30;;;;;;5115286;28;20544;-81
2021/08/18 08:53:50;;;;;;;9.05;5.30;;;17.50;98.40;;;;;;5114941;28;20142;-80
2021/08/18 08:56:18;;;;;;;9.02;5.53;;;17.60;98.40;;;;;;5118542;28;20139;-77
2021/08/18 08:58:45;;;;;;;9.50;5.40;;;17.60;97.90;;;;;;5116557;28;20056;-79
2021/08/18 09:01:12;;;;;;;10.70;5.35;;;17.60;98.10;;;;;;5115417;28;20047;-80
2021/08/18 09:03:40;;;;;;;10.65;5.82;;;17.60;98.50;;;;;;5115726;28;20043;-80
2021/08/18 09:06:08;;;;;;;12.45;6.07;;;17.60;98.30;;;;;;5116036;28;20052;-81
2021/08/18 09:08:48;;;;;;;11.23;5.68;;;17.60;98.30;;;;;;5115372;28;20039;-80
2021/08/18 09:11:19;;;;;;;11.18;6.20;;;17.60;98.10;;;;;;5115075;28;20386;-80
2021/08/18 09:13:48;;;;;;;11.25;6.30;;;17.70;98.10;;;;;;5114897;28;20503;-80
2021/08/18 09:16:18;;;;;;;10.48;6.25;;;17.70;98.10;;;;;;5115105;28;20155;-78
2021/08/18 09:18:48;;;;;;;11.95;5.82;;;17.70;98.10;;;;;;5114788;28;20126;-77
2021/08/18 09:21:37;;;;;;;11.00;6.00;;;17.70;97.90;;;;;;5114607;28;20127;-80
2021/08/18 09:24:23;;;;;;;9.90;5.70;;;17.80;98.00;;;;;;5115289;28;20117;-80
2021/08/18 09:26:54;;;;;;;11.38;5.70;;;17.90;97.90;;;;;;5114791;28;20468;-80
2021/08/18 09:29:37;;;;;;;9.77;5.70;;;17.90;97.90;;;;;;5114568;28;20049;-81
2021/08/18 09:32:30;;;;;;;9.55;5.55;;;18.00;97.90;;;;;;5114717;28;20058;-80
2021/08/18 09:34:59;;;;;;;9.85;5.25;;;18.10;97.80;;;;;;5114728;28;20108;-78
2021/08/18 09:37:28;;;;;;;9.57;5.20;;;18.10;97.70;;;;;;5114158;28;20075;-79
2021/08/18 09:39:56;;;;;;;8.13;4.65;;;18.10;97.40;;;;;;5116357;28;20043;-79
2021/08/18 09:42:34;;;;;;;8.63;4.88;;;18.10;97.60;;;;;;5116071;28;20039;-81
2021/08/18 09:45:18;;;;;;;8.48;4.20;;;18.20;97.60;;;;;;5114960;28;20472;-81
2021/08/18 09:47:57;;;;;;;8.77;4.55;;;18.30;97.60;;;;;;5114644;28;20127;-79
2021/08/18 09:50:27;;;;;;;8.65;4.50;;;18.40;97.20;;;;;;5094063;28;20493;-80
2021/08/18 09:52:54;;;;;;;7.75;3.83;;;18.40;97.00;;;;;;5093857;28;20047;-81
2021/08/18 09:55:23;;;;;;;6.82;4.10;;;18.60;96.90;;;;;;5093979;28;20479;-80
2021/08/18 09:57:52;;;;;;;5.75;3.13;;;18.50;96.60;;;;;;5100799;28;20043;-80
2021/08/18 10:00:20;;;;;;;6.07;3.13;;;18.50;96.70;;;;;;5114575;28;20150;-79
2021/08/18 10:02:47;;;;;;;5.93;3.00;;;18.60;96.70;;;;;;5116557;28;20130;-78
2021/08/18 10:05:14;;;;;;;4.72;2.65;;;18.70;96.30;;;;;;5121285;28;20079;-78
2021/08/18 10:07:41;;;;;;;4.55;2.38;;;18.70;96.50;;;;;;5121492;28;20075;-78
2021/08/18 10:10:11;;;;;;;4.70;2.40;;;18.70;95.60;;;;;;5120675;28;20127;-78
2021/08/18 10:12:38;;;;;;;5.15;2.38;;;18.70;95.80;;;;;;5120263;28;20099;-77
2021/08/18 10:15:08;;;;;;;4.32;2.13;;;18.80;95.80;;;;;;5120090;28;20078;-79
2021/08/18 10:17:41;;;;;;;3.88;2.05;;;18.80;95.90;;;;;;5114325;28;20043;-81
2021/08/18 10:20:10;;;;;;;3.65;1.95;;;18.90;96.00;;;;;;5114676;28;20130;-77
2021/08/18 10:22:39;;;;;;;4.20;1.92;;;18.90;95.20;;;;;;5115097;28;20050;-81
2021/08/18 10:25:35;;;;;;;4.82;2.22;;;19.00;95.00;;;;;;5113332;28;20043;-76
2021/08/18 10:28:04;;;;;;;4.82;2.30;;;19.10;95.10;;;;;;5105469;28;20050;-80
2021/08/18 10:30:45;;;;;;;4.80;2.15;;;19.20;94.80;;;;;;5114219;28;20138;-79
2021/08/18 10:33:12;;;;;;;4.40;2.05;;;19.20;95.10;;;;;;5114369;28;20390;-81
2021/08/18 10:35:44;;;;;;;4.68;2.13;;;19.30;95.10;;;;;;5114108;28;20497;-80
2021/08/18 10:38:35;;;;;;;4.13;2.00;;;19.40;95.00;;;;;;5113286;28;20053;-77
2021/08/18 10:41:02;;;;;;;4.03;1.98;;;19.50;94.50;;;;;;5133568;27;20046;-79
2021/08/18 10:43:59;;;;;;;5.05;2.65;;;19.50;94.70;;;;;;5127814;27;20044;-78
2021/08/18 10:46:28;;;;;;;3.78;1.70;;;19.60;94.50;;;;;;5113743;28;20083;-79
2021/08/18 10:49:04;;;;;;;3.63;1.80;;;19.60;94.00;;;;;;5113477;28;20115;-80
2021/08/18 10:51:53;;;;;;;3.20;1.50;;;19.60;93.60;;;;;;5112309;28;20047;-79
2021/08/18 10:54:45;;;;;;;4.47;2.05;;;19.50;94.00;;;;;;5103014;28;20408;-81
2021/08/18 10:57:37;;;;;;;6.60;3.20;;;19.50;93.80;;;;;;5110316;28;20039;-79
2021/08/18 11:00:13;;;;;;;9.68;5.07;;;19.50;93.90;;;;;;5110921;28;20048;-79
2021/08/18 11:02:58;;;;;;;3.70;1.60;;;19.50;93.70;;;;;;5110765;28;20087;-80
2021/08/18 11:05:29;;;;;;;3.20;1.60;;;19.50;94.00;;;;;;5109602;28;20047;-80
2021/08/18 11:08:09;;;;;;;3.22;1.55;;;19.50;94.00;;;;;;5110803;28;20362;-78
2021/08/18 11:10:39;;;;;;;3.38;1.40;;;19.60;94.10;;;;;;5110735;28;20083;-79
2021/08/18 11:13:08;;;;;;;3.38;1.60;;;19.60;94.10;;;;;;5110823;28;20058;-79
2021/08/18 11:15:54;;;;;;;3.50;1.73;;;19.60;94.20;;;;;;5110403;28;20082;-79
2021/08/18 11:18:24;;;;;;;3.53;1.42;;;19.60;94.20;;;;;;5112555;28;20131;-79
2021/08/18 11:20:56;;;;;;;3.13;1.58;;;19.70;93.90;;;;;;5113873;28;20059;-79
2021/08/18 11:23:35;;;;;;;3.70;1.63;;;19.80;94.20;;;;;;5114436;28;20050;-80
2021/08/18 11:26:06;;;;;;;3.00;1.25;;;19.80;94.20;;;;;;5114143;28;20442;-79
2021/08/18 11:28:36;;;;;;;2.95;1.40;;;19.90;94.00;;;;;;5114380;28;20051;-80
2021/08/18 11:31:08;;;;;;;2.90;1.48;;;20.00;94.00;;;;;;5114101;28;20400;-79
2021/08/18 11:33:37;;;;;;;3.58;1.40;;;20.10;93.60;;;;;;5114589;28;20090;-79
2021/08/18 11:36:16;;;;;;;5.00;1.30;;;20.20;93.40;;;;;;5113746;28;20147;-80
2021/08/18 11:38:43;;;;;;;3.85;1.40;;;20.30;92.90;;;;;;5114004;28;20127;-78
2021/08/18 11:41:10;;;;;;;2.58;1.13;;;20.20;93.10;;;;;;5114084;28;20075;-79
2021/08/18 11:43:43;;;;;;;2.67;1.10;;;20.20;93.10;;;;;;5114100;28;20082;-80
2021/08/18 11:46:11;;;;;;;4.43;1.80;;;20.20;93.50;;;;;;5114148;28;20051;-80
2021/08/18 11:48:41;;;;;;;2.97;1.30;;;20.30;93.10;;;;;;5114234;28;20071;-81
2021/08/18 11:51:19;;;;;;;2.75;1.20;;;20.30;92.80;;;;;;5113982;28;20040;-79
2021/08/18 11:53:54;;;;;;;2.95;1.13;;;20.30;92.80;;;;;;5113966;28;20134;-80
2021/08/18 11:56:27;;;;;;;2.83;1.15;;;20.30;91.90;;;;;;5114221;28;20078;-79
2021/08/18 11:59:00;;;;;;;2.53;1.20;;;20.30;92.20;;;;;;5113240;28;20481;-77
2021/08/18 12:01:27;;;;;;;3.45;1.20;;;20.20;92.60;;;;;;5114035;28;20047;-76
2021/08/18 12:03:57;;;;;;;3.20;1.50;;;20.20;92.80;;;;;;5113612;28;20485;-80
2021/08/18 12:06:36;;;;;;;3.38;1.13;;;20.20;92.50;;;;;;5113823;28;20080;-78
2021/08/18 12:09:19;;;;;;;2.85;1.15;;;20.20;92.70;;;;;;5114473;28;20075;-82
2021/08/18 12:11:47;;;;;;;3.05;1.30;;;20.30;92.90;;;;;;5113522;28;20094;-81
2021/08/18 12:14:18;;;;;;;2.60;1.10;;;20.30;92.90;;;;;;5113505;28;20054;-80
2021/08/18 12:16:57;;;;;;;3.13;1.15;;;20.40;92.70;;;;;;5113311;28;20143;-79
2021/08/18 12:19:28;;;;;;;2.50;1.10;;;20.50;92.60;;;;;;5112857;28;20493;-79
2021/08/18 12:22:13;;;;;;;3.10;1.17;;;20.50;92.70;;;;;;5113679;28;20127;-82
2021/08/18 12:24:40;;;;;;;;;;;20.50;92.10;;;;;;5113380;28;20043;-79
2021/08/18 12:27:10;;;;;;;3.10;1.00;;;20.60;92.40;;;;;;5113146;28;19959;-79
2021/08/18 12:29:38;;;;;;;2.10;0.90;;;20.60;92.00;;;;;;5112377;28;20044;-79
2021/08/18 12:32:08;;;;;;;2.20;0.98;;;20.70;91.80;;;;;;5113260;28;20511;-79
2021/08/18 12:34:40;;;;;;;1.75;0.75;;;20.70;92.00;;;;;;5112989;28;20048;-79
2021/08/18 12:37:11;;;;;;;1.92;0.90;;;20.70;92.30;;;;;;5112795;28;20051;-79
2021/08/18 12:39:41;;;;;;;2.30;0.95;;;20.80;91.70;;;;;;5113136;28;20040;-79
2021/08/18 12:42:10;;;;;;;2.45;1.00;;;20.80;91.80;;;;;;5113140;28;20043;-79
2021/08/18 12:44:39;;;;;;;2.85;1.42;;;20.80;91.80;;;;;;5112554;28;20493;-79
2021/08/18 12:47:10;;;;;;;3.05;1.23;;;20.70;92.10;;;;;;5112710;28;20410;-78
2021/08/18 12:49:47;;;;;;;2.30;1.13;;;20.70;92.00;;;;;;5112722;28;20078;-78